Terminal Aerodrome Forecast
Issued by NWS

Home | Current Version | Previous Version | Text Only | Print | Product List | Glossary On
Versions: 1 2 3 4 5 6 7 8 9 10 11 12 13 14 15 16 17 18 19 20 21 22 23 24 25 26 27 28 29 30 31 32 33 34 35 36 37 38 39 40 41 42 43 44 45
000
FTUS43 KLOT 141400 AAA
TAFORD
TAF AMD
KORD 141401Z 1414/1518 22006KT P6SM VCSH BKN050
      TEMPO 1415/1416 5SM SHRA
     FM141900 28011G16KT P6SM SCT070
     FM142100 30014G20KT P6SM VCSH BKN050
     FM150400 30010KT P6SM SCT045
     FM151000 30009KT P6SM SCT010 BKN020=

USA.gov is the U.S. government's official web portal to all federal, state and local government web resources and services.